South Sterling, Pennsylvania
Current Conditions -  °F | °C
As of 12:53 PM on Sunday 25 Jan 2015 (Local Time) from KMPO Reporting Station
Clear Clear  
Wind Chill: 20°   Ceiling: Unl
Heat Index: 30°   Visibility: 10mi
Dew Point: 11°   Wind: 14mph
Humidity: 45%   Direction: 320°NW
Pressure: 29.73"   Gusts: 23mph
Location:  41.26°N, 75.35°W
Report Text: KMPO 251753Z AUTO 32012G20KT 10SM CLR M01/M12 A2973 RMK AO2 SLP088 60000 T10111117 11006 21011 51022
Loading
Personal Weather Stations






























Interactive Weather Map New forecast layout! Learn more

10-Day Weather Forecast

Advertisements
Track Severe Weather on mobile